Time;durP1;ratioP1;P1;durP2;ratioP2;P2;SDS_P1;SDS_P2;PMS_P1;PMS_P2;Temp;Humidity;BMP_temperature;BMP_pressure;BME280_temperature;BME280_humidity;BME280_pressure;Samples;Min_cycle;Max_cycle;Signal;HPM_P1;HPM_P2
2024/04/17 00:00:29;;;;;;;;;;;;;;;11.54;70.37;99758.06;5277027;27;20340;-92
2024/04/17 00:02:54;;;;;;;;;;;;;;;11.56;71.55;99751.81;5249083;27;19938;-90
2024/04/17 00:05:20;;;;;;;;;;;;;;;11.52;70.95;99760.75;5249146;27;19947;-92
2024/04/17 00:07:45;;;;;;;;;;;;;;;11.53;70.96;99767.59;5249038;27;19934;-91
2024/04/17 00:10:10;;;;;;;;;;;;;;;11.37;71.29;99766.91;5251072;27;20412;-91
2024/04/17 00:12:36;;;;;;;;;;;;;;;11.35;71.25;99763.63;5280424;27;20248;-91
2024/04/17 00:15:01;;;;;;;;;;;;;;;11.34;70.49;99773.13;5251807;27;19934;-90
2024/04/17 00:17:26;;;;;;;;;;;;;;;11.23;72.17;99779.97;5252065;27;19934;-91
2024/04/17 00:19:52;;;;;;;;;;;;;;;11.24;72.30;99781.59;5280366;27;19955;-91
2024/04/17 00:22:17;;;;;;;;;;;;;;;11.33;71.11;99773.25;5251923;27;20064;-93
2024/04/17 00:24:42;;;;;;;;;;;;;;;11.31;70.79;99772.53;5280306;27;20349;-89
2024/04/17 00:27:08;;;;;;;;;;;;;;;11.31;70.88;99782.88;5251712;27;20360;-91
2024/04/17 00:29:33;;;;;;;;;;;;;;;11.41;71.52;99778.75;5251480;27;19927;-92
2024/04/17 00:31:58;;;;;;;;;;;;;;;11.44;70.64;99775.97;5251679;27;19934;-91
2024/04/17 00:34:24;;;;;;;;;;;;;;;11.46;70.27;99782.69;5251546;27;19939;-91
2024/04/17 00:36:49;;;;;;;;;;;;;;;11.51;70.32;99785.00;5251677;27;19981;-90
2024/04/17 00:39:14;;;;;;;;;;;;;;;11.55;70.25;99778.66;5251171;27;19934;-90
2024/04/17 00:41:40;;;;;;;;;;;;;;;11.49;70.28;99774.69;5251616;27;19927;-91
2024/04/17 00:44:06;;;;;;;;;;;;;;;11.46;69.82;99776.69;5251232;27;19934;-92
2024/04/17 00:46:31;;;;;;;;;;;;;;;11.44;69.12;99773.38;5251276;27;19933;-91
2024/04/17 00:48:57;;;;;;;;;;;;;;;11.44;70.20;99768.19;5251187;27;19935;-92
2024/04/17 00:51:22;;;;;;;;;;;;;;;11.48;69.42;99762.69;5279860;27;19926;-91
2024/04/17 00:53:47;;;;;;;;;;;;;;;11.45;69.55;99770.66;5251638;27;19998;-90
2024/04/17 00:56:13;;;;;;;;;;;;;;;11.43;68.48;99779.47;5279725;27;19997;-92
2024/04/17 00:58:38;;;;;;;;;;;;;;;11.36;69.56;99766.09;5279331;27;20343;-91
2024/04/17 01:01:03;;;;;;;;;;;;;;;11.44;68.55;99763.84;5279517;27;19927;-89
2024/04/17 01:03:29;;;;;;;;;;;;;;;11.41;69.48;99768.41;5251487;27;19933;-91
2024/04/17 01:05:54;;;;;;;;;;;;;;;11.31;68.10;99777.69;5251539;27;19927;-90
2024/04/17 01:08:19;;;;;;;;;;;;;;;11.39;68.96;99778.00;5279705;27;19939;-90
2024/04/17 01:10:45;;;;;;;;;;;;;;;11.42;68.88;99790.78;5279574;27;20349;-90
2024/04/17 01:13:10;;;;;;;;;;;;;;;11.54;68.31;99769.25;5251054;27;20093;-91
2024/04/17 01:15:35;;;;;;;;;;;;;;;11.46;68.36;99766.31;5251254;27;19975;-92
2024/04/17 01:18:01;;;;;;;;;;;;;;;11.51;67.66;99759.09;5251484;27;19931;-91
2024/04/17 01:20:26;;;;;;;;;;;;;;;11.51;67.46;99764.28;5250132;27;19927;-91
2024/04/17 01:22:51;;;;;;;;;;;;;;;11.49;66.81;99766.94;5250529;27;19927;-89
2024/04/17 01:25:17;;;;;;;;;;;;;;;11.45;66.86;99755.13;5251202;27;19927;-92
2024/04/17 01:27:42;;;;;;;;;;;;;;;11.43;66.79;99751.00;5250784;27;19963;-91
2024/04/17 01:30:08;;;;;;;;;;;;;;;11.46;67.37;99740.41;5250463;27;19927;-90
2024/04/17 01:32:33;;;;;;;;;;;;;;;11.46;67.19;99740.41;5250594;27;19934;-92
2024/04/17 01:34:58;;;;;;;;;;;;;;;11.42;67.13;99728.63;5250571;27;19934;-90
2024/04/17 01:37:24;;;;;;;;;;;;;;;11.38;66.53;99727.16;5250392;27;19927;-90
2024/04/17 01:39:49;;;;;;;;;;;;;;;11.39;67.26;99713.25;5250405;27;20344;-90
2024/04/17 01:42:14;;;;;;;;;;;;;;;11.40;68.04;99717.50;5250331;27;19933;-92
2024/04/17 01:44:39;;;;;;;;;;;;;;;11.43;68.05;99719.91;5250613;27;19927;-91
2024/04/17 01:47:05;;;;;;;;;;;;;;;11.45;67.26;99733.59;5250311;27;19927;-90
2024/04/17 01:49:30;;;;;;;;;;;;;;;11.56;67.16;99733.69;5249927;27;19927;-91
2024/04/17 01:51:55;;;;;;;;;;;;;;;11.57;66.34;99737.94;5250231;27;19968;-92
2024/04/17 01:54:20;;;;;;;;;;;;;;;11.60;65.63;99732.56;5278512;27;19943;-90
2024/04/17 01:56:46;;;;;;;;;;;;;;;11.48;65.55;99733.38;5249749;27;20257;-91
2024/04/17 01:59:11;;;;;;;;;;;;;;;11.49;65.02;99729.84;5250217;27;19935;-90
2024/04/17 02:01:36;;;;;;;;;;;;;;;11.49;64.96;99730.66;5250379;27;19955;-92
2024/04/17 02:04:02;;;;;;;;;;;;;;;11.55;64.62;99729.44;5250176;27;19931;-91
2024/04/17 02:06:27;;;;;;;;;;;;;;;11.47;64.96;99723.94;5250121;27;19935;-92
2024/04/17 02:08:52;;;;;;;;;;;;;;;11.50;65.38;99723.72;5250221;27;19927;-90
2024/04/17 02:11:17;;;;;;;;;;;;;;;11.54;64.43;99725.19;5277959;27;19934;-90
2024/04/17 02:13:43;;;;;;;;;;;;;;;11.49;63.99;99729.84;5249975;27;19939;-92
2024/04/17 02:16:08;;;;;;;;;;;;;;;11.40;64.11;99722.69;5249700;27;19927;-92
2024/04/17 02:18:33;;;;;;;;;;;;;;;11.28;64.90;99715.75;5249510;27;19955;-88
2024/04/17 02:21:01;;;;;;;;;;;;;;;11.14;65.22;99707.13;5249675;27;19943;-92
2024/04/17 02:23:28;;;;;;;;;;;;;;;11.13;65.38;99715.00;5249551;27;19927;-90
2024/04/17 02:25:54;;;;;;;;;;;;;;;11.12;64.77;99709.00;5249736;27;19934;-91
2024/04/17 02:28:19;;;;;;;;;;;;;;;11.22;64.42;99718.75;5249933;27;19934;-90
2024/04/17 02:30:44;;;;;;;;;;;;;;;11.26;64.25;99722.78;5249652;27;19926;-91
2024/04/17 02:33:09;;;;;;;;;;;;;;;11.24;64.42;99719.47;5249275;27;20261;-89
2024/04/17 02:35:35;;;;;;;;;;;;;;;11.14;64.54;99719.25;5249531;27;19934;-92
2024/04/17 02:38:00;;;;;;;;;;;;;;;11.07;64.51;99721.41;5249714;27;20324;-89
2024/04/17 02:40:26;;;;;;;;;;;;;;;11.13;64.10;99722.78;5249283;27;19934;-90
2024/04/17 02:42:51;;;;;;;;;;;;;;;11.07;64.80;99712.81;5249615;27;19997;-90
2024/04/17 02:45:16;;;;;;;;;;;;;;;11.06;65.23;99706.81;5233421;27;19928;-91
2024/04/17 02:47:41;;;;;;;;;;;;;;;11.09;64.80;99706.59;5244185;27;19928;-91
2024/04/17 02:50:07;;;;;;;;;;;;;;;11.09;64.19;99701.41;5243886;27;19972;-90
2024/04/17 02:52:32;;;;;;;;;;;;;;;11.02;64.68;99710.53;5244437;27;19999;-91
2024/04/17 02:54:58;;;;;;;;;;;;;;;11.00;64.81;99716.72;5243414;27;19927;-87
2024/04/17 02:57:24;;;;;;;;;;;;;;;11.06;64.77;99708.56;5245213;27;19947;-86
2024/04/17 02:59:50;;;;;;;;;;;;;;;11.11;64.02;99709.06;5243571;27;19935;-87
2024/04/17 03:02:15;;;;;;;;;;;;;;;11.13;63.73;99705.47;5243677;27;19927;-87
2024/04/17 03:04:40;;;;;;;;;;;;;;;11.19;64.12;99702.47;5243524;27;19959;-86
2024/04/17 03:07:05;;;;;;;;;;;;;;;11.14;63.85;99694.19;5243472;27;20002;-86
2024/04/17 03:09:31;;;;;;;;;;;;;;;11.11;63.67;99689.22;5243091;27;19928;-88
2024/04/17 03:11:56;;;;;;;;;;;;;;;11.23;64.60;99692.75;5243357;27;19928;-86
2024/04/17 03:14:21;;;;;;;;;;;;;;;11.22;63.89;99695.44;5243243;27;19943;-87
2024/04/17 03:16:47;;;;;;;;;;;;;;;11.13;63.55;99687.34;5243254;27;19928;-86
2024/04/17 03:19:12;;;;;;;;;;;;;;;11.11;63.88;99691.81;5215232;27;19935;-86
2024/04/17 03:21:37;;;;;;;;;;;;;;;11.12;63.87;99696.06;5215494;27;19927;-86
2024/04/17 03:24:03;;;;;;;;;;;;;;;11.00;64.70;99696.84;5243099;27;19928;-86
2024/04/17 03:26:28;;;;;;;;;;;;;;;10.90;64.77;99696.59;5244783;27;19931;-86
2024/04/17 03:28:53;;;;;;;;;;;;;;;10.89;64.62;99701.88;5214872;27;20369;-87
2024/04/17 03:31:19;;;;;;;;;;;;;;;10.90;64.32;99698.38;5244328;27;19935;-86
2024/04/17 03:33:47;;;;;;;;;;;;;;;10.94;64.31;99686.91;5242703;27;20004;-86
2024/04/17 03:36:12;;;;;;;;;;;;;;;10.98;64.64;99690.94;5242667;27;19952;-86
2024/04/17 03:38:38;;;;;;;;;;;;;;;11.10;63.92;99691.88;5244107;27;19969;-87
2024/04/17 03:41:03;;;;;;;;;;;;;;;11.14;63.63;99699.38;5242441;27;19934;-86
2024/04/17 03:43:29;;;;;;;;;;;;;;;11.18;63.27;99695.63;5213937;27;19998;-86
2024/04/17 03:45:54;;;;;;;;;;;;;;;11.13;63.89;99691.72;5243975;27;19935;-87
2024/04/17 03:48:19;;;;;;;;;;;;;;;11.15;63.83;99701.03;5242340;27;20269;-86
2024/04/17 03:50:44;;;;;;;;;;;;;;;11.26;64.11;99699.47;5245383;27;19927;-85
2024/04/17 03:53:10;;;;;;;;;;;;;;;11.43;63.74;99696.59;5247400;27;19927;-84
2024/04/17 03:55:35;;;;;;;;;;;;;;;11.52;63.51;99701.16;5247624;27;19938;-85
2024/04/17 03:58:00;;;;;;;;;;;;;;;11.49;62.40;99696.19;5275674;27;19934;-88
2024/04/17 04:00:26;;;;;;;;;;;;;;;11.47;62.03;99703.22;5247586;27;19927;-86
2024/04/17 04:02:51;;;;;;;;;;;;;;;11.44;63.20;99699.09;5247003;27;19935;-88
2024/04/17 04:05:16;;;;;;;;;;;;;;;11.40;63.14;99699.38;5247545;27;19937;-87
2024/04/17 04:07:42;;;;;;;;;;;;;;;11.47;63.69;99701.47;5247115;27;19935;-87
2024/04/17 04:10:07;;;;;;;;;;;;;;;11.51;65.61;99709.88;5277217;27;19933;-89
2024/04/17 04:12:32;;;;;;;;;;;;;;;11.52;66.92;99703.75;5247211;27;19927;-90
2024/04/17 04:14:58;;;;;;;;;;;;;;;11.38;66.72;99703.84;5245947;27;19938;-85
2024/04/17 04:17:23;;;;;;;;;;;;;;;11.32;67.80;99709.44;5266501;27;19928;-86
2024/04/17 04:19:48;;;;;;;;;;;;;;;11.31;69.77;99705.19;5262383;27;19942;-84
2024/04/17 04:22:14;;;;;;;;;;;;;;;11.30;69.98;99708.69;5242975;27;20441;-84
2024/04/17 04:24:42;;;;;;;;;;;;;;;11.31;69.42;99707.78;5274673;27;19935;-87
2024/04/17 04:27:10;;;;;;;;;;;;;;;11.27;68.83;99714.91;5276298;27;19927;-87
2024/04/17 04:29:36;;;;;;;;;;;;;;;11.19;69.97;99712.00;5276335;27;19934;-87
2024/04/17 04:32:01;;;;;;;;;;;;;;;11.25;72.85;99721.97;5245825;27;19927;-89
2024/04/17 04:34:27;;;;;;;;;;;;;;;11.12;72.16;99734.88;5218892;27;19939;-85
2024/04/17 04:36:52;;;;;;;;;;;;;;;10.96;72.56;99726.44;5269860;27;19997;-82
2024/04/17 04:39:17;;;;;;;;;;;;;;;10.98;73.26;99724.59;5275997;27;19934;-82
2024/04/17 04:41:43;;;;;;;;;;;;;;;10.82;73.78;99729.09;5244423;27;19934;-85
2024/04/17 04:44:08;;;;;;;;;;;;;;;10.80;75.33;99724.00;5274576;27;19927;-83
2024/04/17 04:46:33;;;;;;;;;;;;;;;10.77;74.62;99731.16;5274082;27;19934;-87
2024/04/17 04:48:59;;;;;;;;;;;;;;;10.72;75.48;99735.78;5272837;27;19927;-86
2024/04/17 04:51:24;;;;;;;;;;;;;;;10.72;76.12;99744.38;5245938;27;19927;-90
2024/04/17 04:53:49;;;;;;;;;;;;;;;10.59;76.33;99744.31;5266736;27;19935;-90
2024/04/17 04:56:15;;;;;;;;;;;;;;;10.57;75.75;99733.22;5244933;27;19928;-86
2024/04/17 04:58:42;;;;;;;;;;;;;;;10.48;76.50;99740.75;5277886;27;19926;-89
2024/04/17 05:01:07;;;;;;;;;;;;;;;10.43;77.78;99748.78;5249828;27;19935;-88
2024/04/17 05:03:33;;;;;;;;;;;;;;;10.49;77.50;99750.16;5278124;27;19927;-89
2024/04/17 05:05:58;;;;;;;;;;;;;;;10.59;78.95;99748.66;5262477;27;19975;-88
2024/04/17 05:08:23;;;;;;;;;;;;;;;10.55;78.03;99757.53;5277927;27;19927;-88
2024/04/17 05:10:49;;;;;;;;;;;;;;;10.50;78.99;99739.72;5217732;27;19927;-87
2024/04/17 05:13:14;;;;;;;;;;;;;;;10.41;79.87;99735.09;5246334;27;19975;-90
2024/04/17 05:15:39;;;;;;;;;;;;;;;10.41;79.65;99745.44;5278249;27;19935;-91
2024/04/17 05:18:05;;;;;;;;;;;;;;;10.32;80.19;99740.84;5276019;27;19927;-86
2024/04/17 05:20:30;;;;;;;;;;;;;;;10.37;80.62;99738.81;5219583;27;19942;-86
2024/04/17 05:22:55;;;;;;;;;;;;;;;10.34;79.65;99742.44;5276291;27;20686;-89
2024/04/17 05:25:21;;;;;;;;;;;;;;;10.35;80.93;99756.19;5279260;27;19942;-89
2024/04/17 05:27:46;;;;;;;;;;;;;;;10.33;81.48;99752.88;5248632;27;20308;-86
2024/04/17 05:30:11;;;;;;;;;;;;;;;10.37;81.01;99749.16;5246386;27;20333;-84
2024/04/17 05:32:37;;;;;;;;;;;;;;;10.38;81.41;99750.81;5249688;27;19927;-91
2024/04/17 05:35:02;;;;;;;;;;;;;;;10.29;81.64;99751.38;5253509;27;19927;-89
2024/04/17 05:37:28;;;;;;;;;;;;;;;10.34;81.89;99757.13;5250071;27;19927;-87
2024/04/17 05:39:53;;;;;;;;;;;;;;;10.29;81.58;99754.81;5278848;27;20072;-84
2024/04/17 05:42:19;;;;;;;;;;;;;;;10.41;82.20;99757.56;5276680;27;19935;-88
2024/04/17 05:44:44;;;;;;;;;;;;;;;10.38;81.51;99761.16;5248364;27;19927;-89
2024/04/17 05:47:10;;;;;;;;;;;;;;;10.36;81.12;99760.44;5277337;27;19927;-86
2024/04/17 05:49:35;;;;;;;;;;;;;;;10.45;82.72;99762.44;5273817;27;19927;-85
2024/04/17 05:52:00;;;;;;;;;;;;;;;10.39;80.59;99755.06;5279152;27;19931;-90
2024/04/17 05:54:26;;;;;;;;;;;;;;;10.37;81.09;99759.50;5277783;27;19927;-93
2024/04/17 05:56:51;;;;;;;;;;;;;;;10.41;81.32;99750.63;5247976;27;20346;-91
2024/04/17 05:59:16;;;;;;;;;;;;;;;10.37;80.42;99754.34;5251621;27;19934;-92
2024/04/17 06:01:42;;;;;;;;;;;;;;;10.30;82.34;99753.03;5227542;27;19934;-90
2024/04/17 06:04:07;;;;;;;;;;;;;;;10.37;82.09;99753.50;5277957;27;19927;-84
2024/04/17 06:06:32;;;;;;;;;;;;;;;10.49;84.20;99748.41;5276669;27;19934;-86
2024/04/17 06:08:58;;;;;;;;;;;;;;;10.60;83.84;99750.31;5274320;27;19934;-87
2024/04/17 06:11:24;;;;;;;;;;;;;;;10.55;80.79;99747.19;5243895;27;19931;-90
2024/04/17 06:13:50;;;;;;;;;;;;;;;10.44;81.33;99740.09;5277457;27;19939;-88
2024/04/17 06:16:15;;;;;;;;;;;;;;;10.43;82.36;99741.03;5276214;27;19927;-92
2024/04/17 06:18:40;;;;;;;;;;;;;;;10.42;82.50;99744.56;5278092;27;19927;-92
2024/04/17 06:21:06;;;;;;;;;;;;;;;10.43;83.31;99743.63;5277486;27;19927;-89
2024/04/17 06:23:31;;;;;;;;;;;;;;;10.48;83.60;99743.31;5277373;27;19927;-83
2024/04/17 06:25:56;;;;;;;;;;;;;;;10.44;82.84;99742.69;5275603;27;19994;-86
2024/04/17 06:28:22;;;;;;;;;;;;;;;10.44;84.05;99745.28;5248232;27;19927;-86
2024/04/17 06:30:47;;;;;;;;;;;;;;;10.44;83.32;99739.28;5247847;27;19933;-84
2024/04/17 06:33:12;;;;;;;;;;;;;;;10.41;82.24;99723.94;5247083;27;19989;-82
2024/04/17 06:35:38;;;;;;;;;;;;;;;10.41;81.75;99724.75;5248123;27;19934;-90
2024/04/17 06:38:03;;;;;;;;;;;;;;;10.44;81.98;99727.19;5221237;27;19931;-84
2024/04/17 06:40:28;;;;;;;;;;;;;;;10.51;82.08;99737.94;5248067;27;19934;-89
2024/04/17 06:42:54;;;;;;;;;;;;;;;10.49;81.39;99730.28;5247243;27;19964;-86
2024/04/17 06:45:19;;;;;;;;;;;;;;;10.48;81.24;99738.16;5221035;27;19959;-86
2024/04/17 06:47:44;;;;;;;;;;;;;;;10.47;81.58;99737.31;5277932;27;20242;-86
2024/04/17 06:50:10;;;;;;;;;;;;;;;10.52;82.50;99735.28;5247381;27;20376;-89
2024/04/17 06:52:35;;;;;;;;;;;;;;;10.44;81.08;99734.94;5278172;27;20369;-87
2024/04/17 06:55:02;;;;;;;;;;;;;;;10.46;80.83;99740.84;5249950;27;19982;-91
2024/04/17 06:57:28;;;;;;;;;;;;;;;10.42;81.74;99738.53;5278955;27;19927;-89
2024/04/17 06:59:53;;;;;;;;;;;;;;;10.38;81.83;99737.06;5246613;27;20361;-83
2024/04/17 07:02:18;;;;;;;;;;;;;;;10.42;82.45;99743.69;5275758;27;19927;-87
2024/04/17 07:04:44;;;;;;;;;;;;;;;10.42;81.15;99736.78;5277342;27;20276;-89
2024/04/17 07:07:09;;;;;;;;;;;;;;;10.48;81.47;99743.31;5278121;27;20411;-87
2024/04/17 07:09:35;;;;;;;;;;;;;;;10.50;80.43;99744.88;5277524;27;20349;-88
2024/04/17 07:12:00;;;;;;;;;;;;;;;10.42;81.55;99741.97;5281564;27;19931;-91
2024/04/17 07:14:25;;;;;;;;;;;;;;;10.47;83.28;99745.09;5250333;27;19927;-90
2024/04/17 07:16:51;;;;;;;;;;;;;;;10.49;82.64;99740.63;5274574;27;19934;-88
2024/04/17 07:19:16;;;;;;;;;;;;;;;10.56;82.86;99741.09;5245363;27;19939;-83
2024/04/17 07:21:41;;;;;;;;;;;;;;;10.48;82.57;99740.75;5270036;27;20393;-90
2024/04/17 07:24:06;;;;;;;;;;;;;;;10.58;83.19;99745.25;5247321;27;19927;-89
2024/04/17 07:26:32;;;;;;;;;;;;;;;10.61;82.81;99747.63;5247897;27;19927;-86
2024/04/17 07:28:57;;;;;;;;;;;;;;;10.56;82.53;99741.91;5274468;27;19927;-90
2024/04/17 07:31:22;;;;;;;;;;;;;;;10.62;84.36;99741.53;5255265;27;19927;-86
2024/04/17 07:33:48;;;;;;;;;;;;;;;10.57;83.75;99735.81;5274519;27;19935;-87
2024/04/17 07:36:13;;;;;;;;;;;;;;;10.62;82.51;99728.63;5278638;27;20855;-82
2024/04/17 07:38:38;;;;;;;;;;;;;;;10.63;82.12;99734.63;5262771;27;19998;-84
2024/04/17 07:41:05;;;;;;;;;;;;;;;10.54;81.42;99735.19;5276283;27;19927;-84
2024/04/17 07:43:31;;;;;;;;;;;;;;;10.54;82.23;99728.25;5288356;27;19985;-90
2024/04/17 07:46:00;;;;;;;;;;;;;;;10.57;81.49;99719.47;5248077;27;20352;-86
2024/04/17 07:48:25;;;;;;;;;;;;;;;10.63;83.89;99722.50;5248178;27;19935;-85
2024/04/17 07:50:51;;;;;;;;;;;;;;;10.65;82.47;99719.81;5273069;27;20431;-86
2024/04/17 07:53:16;;;;;;;;;;;;;;;10.65;83.02;99731.94;5247031;27;19998;-85
2024/04/17 07:55:41;;;;;;;;;;;;;;;10.74;83.98;99742.53;5242226;27;20318;-83
2024/04/17 07:58:07;;;;;;;;;;;;;;;10.68;81.61;99749.84;5274018;27;19927;-88
2024/04/17 08:00:32;;;;;;;;;;;;;;;10.62;82.02;99749.31;5274494;27;19935;-88
2024/04/17 08:02:58;;;;;;;;;;;;;;;10.63;82.35;99742.38;5271580;27;20373;-86
2024/04/17 08:05:23;;;;;;;;;;;;;;;10.54;82.67;99751.53;5247042;27;19927;-88
2024/04/17 08:07:49;;;;;;;;;;;;;;;10.67;84.74;99749.00;5274907;27;19927;-84
2024/04/17 08:10:14;;;;;;;;;;;;;;;10.73;84.09;99760.72;5276349;27;19937;-88
2024/04/17 08:12:40;;;;;;;;;;;;;;;10.67;84.41;99761.94;5274267;27;19927;-88
2024/04/17 08:15:07;;;;;;;;;;;;;;;10.75;84.11;99748.53;5271765;27;19927;-90
2024/04/17 08:17:32;;;;;;;;;;;;;;;10.61;83.19;99752.78;5245910;27;20257;-86
2024/04/17 08:19:58;;;;;;;;;;;;;;;10.63;83.83;99771.66;5274786;27;19931;-87
2024/04/17 08:22:24;;;;;;;;;;;;;;;10.60;82.94;99771.00;5276274;27;19927;-86
2024/04/17 08:24:49;;;;;;;;;;;;;;;10.40;83.44;99766.22;5292866;27;19938;-84
2024/04/17 08:27:14;;;;;;;;;;;;;;;10.41;83.03;99766.13;5276917;27;19981;-88
2024/04/17 08:29:40;;;;;;;;;;;;;;;10.49;85.25;99773.44;5275585;27;19935;-86
2024/04/17 08:32:05;;;;;;;;;;;;;;;10.44;84.13;99772.91;5278042;27;19927;-91
2024/04/17 08:34:30;;;;;;;;;;;;;;;10.37;82.99;99776.78;5279738;27;19926;-87
2024/04/17 08:36:55;;;;;;;;;;;;;;;10.25;83.24;99780.94;5279282;27;19927;-86
2024/04/17 08:39:21;;;;;;;;;;;;;;;10.13;82.13;99782.50;5277786;27;19934;-88
2024/04/17 08:41:48;;;;;;;;;;;;;;;10.11;81.93;99778.31;5249650;27;19927;-85
2024/04/17 08:44:15;;;;;;;;;;;;;;;9.97;81.56;99771.41;5248688;27;19934;-87
2024/04/17 08:46:40;;;;;;;;;;;;;;;9.85;81.66;99770.38;5277165;27;20094;-88
2024/04/17 08:49:05;;;;;;;;;;;;;;;9.93;83.61;99770.78;5278778;27;19927;-83
2024/04/17 08:51:31;;;;;;;;;;;;;;;9.90;82.63;99772.69;5246339;27;19934;-88
2024/04/17 08:53:57;;;;;;;;;;;;;;;9.91;83.10;99782.09;5283483;27;19927;-89
2024/04/17 08:56:24;;;;;;;;;;;;;;;9.98;83.48;99783.41;5250372;27;19927;-92
2024/04/17 08:58:49;;;;;;;;;;;;;;;10.07;83.34;99780.28;5247482;27;19934;-88
2024/04/17 09:01:14;;;;;;;;;;;;;;;10.08;82.02;99776.75;5255191;27;20268;-88
2024/04/17 09:03:40;;;;;;;;;;;;;;;10.10;79.80;99777.50;5271413;27;20263;-83
2024/04/17 09:06:06;;;;;;;;;;;;;;;10.21;83.08;99792.34;5276288;27;19927;-84
2024/04/17 09:08:31;;;;;;;;;;;;;;;10.20;81.52;99793.28;5246924;27;19946;-84
2024/04/17 09:10:57;;;;;;;;;;;;;;;10.07;82.25;99804.34;5246411;27;19927;-91
2024/04/17 09:13:22;;;;;;;;;;;;;;;9.98;81.79;99815.25;5253878;27;19927;-88
2024/04/17 09:15:47;;;;;;;;;;;;;;;9.95;83.01;99817.19;5276765;27;19927;-88
2024/04/17 09:18:13;;;;;;;;;;;;;;;9.93;83.00;99804.34;5276765;27;19998;-87
2024/04/17 09:20:39;;;;;;;;;;;;;;;9.98;80.46;99815.25;5274788;27;19938;-86
2024/04/17 09:23:07;;;;;;;;;;;;;;;9.91;81.82;99801.00;5249806;27;19959;-91
2024/04/17 09:25:33;;;;;;;;;;;;;;;9.81;82.97;99791.31;5278228;27;19927;-86
2024/04/17 09:27:58;;;;;;;;;;;;;;;9.78;83.37;99797.50;5276932;27;19927;-82
2024/04/17 09:30:23;;;;;;;;;;;;;;;9.77;83.04;99801.00;5277327;27;19934;-88
2024/04/17 09:32:49;;;;;;;;;;;;;;;9.77;84.77;99801.00;5276036;27;19927;-86
2024/04/17 09:35:14;;;;;;;;;;;;;;;9.90;85.02;99809.69;5278478;27;20238;-82
2024/04/17 09:37:40;;;;;;;;;;;;;;;9.93;84.57;99796.59;5248223;27;19927;-83
2024/04/17 09:40:06;;;;;;;;;;;;;;;9.98;85.29;99773.91;5277372;27;19934;-85
2024/04/17 09:42:33;;;;;;;;;;;;;;;9.95;84.65;99771.50;5283609;26;19995;-89
2024/04/17 09:44:59;;;;;;;;;;;;;;;9.92;83.05;99766.50;5313478;26;19934;-84
2024/04/17 09:47:25;;;;;;;;;;;;;;;9.96;83.34;99770.56;5316866;26;20359;-87
2024/04/17 09:49:50;;;;;;;;;;;;;;;10.05;83.77;99749.34;5292969;26;19954;-84
2024/04/17 09:52:16;;;;;;;;;;;;;;;10.11;82.46;99765.41;5315638;26;20354;-81
2024/04/17 09:54:44;;;;;;;;;;;;;;;10.10;81.79;99774.06;5316035;26;20343;-87
2024/04/17 09:57:10;;;;;;;;;;;;;;;10.10;82.26;99777.50;5315727;26;19926;-84
2024/04/17 09:59:35;;;;;;;;;;;;;;;10.07;80.87;99775.94;5336037;26;19993;-89
2024/04/17 10:02:01;;;;;;;;;;;;;;;10.11;81.66;99773.97;5311230;27;19938;-91
2024/04/17 10:04:26;;;;;;;;;;;;;;;10.17;82.30;99767.63;5311146;27;19954;-89
2024/04/17 10:06:52;;;;;;;;;;;;;;;10.16;79.99;99768.53;5313063;27;20441;-85
2024/04/17 10:09:17;;;;;;;;;;;;;;;10.22;81.47;99765.59;5320850;26;19926;-87
2024/04/17 10:11:42;;;;;;;;;;;;;;;10.10;78.80;99766.31;5312212;26;19933;-84
2024/04/17 10:14:12;;;;;;;;;;;;;;;10.01;77.98;99763.38;5314149;26;19926;-87
2024/04/17 10:16:37;;;;;;;;;;;;;;;9.99;77.78;99756.63;5285329;27;19968;-89
2024/04/17 10:19:03;;;;;;;;;;;;;;;9.97;77.90;99772.25;5253695;27;20331;-89
2024/04/17 10:21:28;;;;;;;;;;;;;;;9.98;77.58;99780.81;5287450;26;19968;-90
2024/04/17 10:24:00;;;;;;;;;;;;;;;9.69;77.82;99785.94;5316561;26;19926;-81
2024/04/17 10:26:34;;;;;;;;;;;;;;;9.63;78.90;99790.63;5302274;27;19926;-87
2024/04/17 10:29:00;;;;;;;;;;;;;;;9.63;80.89;99772.56;5252964;27;19926;-88
2024/04/17 10:31:32;;;;;;;;;;;;;;;9.75;79.99;99762.34;5283222;27;19926;-92
2024/04/17 10:33:57;;;;;;;;;;;;;;;9.68;81.79;99765.38;5282714;27;19926;-85
2024/04/17 10:36:22;;;;;;;;;;;;;;;9.71;83.05;99775.53;5309524;27;19937;-86
2024/04/17 10:38:48;;;;;;;;;;;;;;;9.84;84.31;99766.16;5301641;26;19933;-91
2024/04/17 10:41:13;;;;;;;;;;;;;;;9.90;85.27;99760.59;5288164;27;19926;-89
2024/04/17 10:43:39;;;;;;;;;;;;;;;9.96;85.56;99760.25;5311474;27;19927;-90
2024/04/17 10:46:05;;;;;;;;;;;;;;;10.00;84.59;99759.13;5281952;27;20367;-85
2024/04/17 10:48:30;;;;;;;;;;;;;;;9.87;79.71;99759.97;5281065;27;19933;-87
2024/04/17 10:50:56;;;;;;;;;;;;;;;9.79;81.98;99757.81;5277263;27;19926;-84
2024/04/17 10:53:21;;;;;;;;;;;;;;;9.69;83.07;99762.72;5280466;27;19927;-86
2024/04/17 10:55:48;;;;;;;;;;;;;;;9.80;84.11;99756.06;5279076;27;19927;-87
2024/04/17 10:58:13;;;;;;;;;;;;;;;9.76;84.50;99760.59;5281246;27;19934;-84
2024/04/17 11:00:38;;;;;;;;;;;;;;;9.76;84.96;99763.19;5281046;27;20004;-84
2024/04/17 11:03:04;;;;;;;;;;;;;;;9.69;83.83;99759.28;5281151;27;19926;-87
2024/04/17 11:05:30;;;;;;;;;;;;;;;9.58;83.69;99756.50;5278792;27;20348;-84
2024/04/17 11:07:56;;;;;;;;;;;;;;;9.49;83.11;99765.63;5280033;27;20332;-85
2024/04/17 11:10:21;;;;;;;;;;;;;;;9.43;84.03;99766.78;5281439;26;19934;-88
2024/04/17 11:12:46;;;;;;;;;;;;;;;9.18;84.70;99772.53;5307940;27;20373;-86
2024/04/17 11:15:12;;;;;;;;;;;;;;;9.29;84.99;99779.69;5282208;27;19927;-91
2024/04/17 11:17:37;;;;;;;;;;;;;;;9.32;85.09;99783.81;5280979;27;19926;-89
2024/04/17 11:20:04;;;;;;;;;;;;;;;9.26;82.22;99789.34;5280502;27;19989;-88
2024/04/17 11:22:29;;;;;;;;;;;;;;;9.15;83.72;99793.38;5280650;27;20234;-84
2024/04/17 11:24:57;;;;;;;;;;;;;;;9.22;83.79;99786.09;5282073;27;19970;-90
2024/04/17 11:27:23;;;;;;;;;;;;;;;9.38;86.13;99793.81;5281466;27;19937;-87
2024/04/17 11:29:48;;;;;;;;;;;;;;;9.32;84.14;99789.00;5278549;27;20256;-90
2024/04/17 11:32:14;;;;;;;;;;;;;;;9.27;85.24;99791.84;5281541;27;20437;-89
2024/04/17 11:34:39;;;;;;;;;;;;;;;9.19;84.75;99794.03;5282401;27;19927;-88
2024/04/17 11:37:05;;;;;;;;;;;;;;;9.16;85.24;99789.03;5277650;27;19926;-87
2024/04/17 11:39:30;;;;;;;;;;;;;;;9.17;86.21;99775.22;5250743;27;19959;-84
2024/04/17 11:41:55;;;;;;;;;;;;;;;9.08;83.73;99786.06;5279571;27;19926;-86
2024/04/17 11:44:21;;;;;;;;;;;;;;;8.94;82.05;99784.22;5311259;27;19926;-87
2024/04/17 11:46:46;;;;;;;;;;;;;;;8.78;83.89;99781.69;5281209;27;19927;-87
2024/04/17 11:49:12;;;;;;;;;;;;;;;8.68;84.68;99777.94;5280221;27;19934;-87
2024/04/17 11:51:37;;;;;;;;;;;;;;;8.55;85.17;99779.50;5280571;27;20257;-84
2024/04/17 11:54:03;;;;;;;;;;;;;;;8.55;85.39;99782.06;5281074;27;19926;-83
2024/04/17 11:56:28;;;;;;;;;;;;;;;8.52;87.01;99777.09;5311504;27;19938;-85
2024/04/17 11:58:54;;;;;;;;;;;;;;;8.52;87.89;99775.34;5308669;27;20348;-85
2024/04/17 12:01:19;;;;;;;;;;;;;;;8.55;86.81;99782.06;5280025;27;19993;-82
2024/04/17 12:03:44;;;;;;;;;;;;;;;8.44;87.19;99786.97;5280879;27;19979;-89
2024/04/17 12:06:10;;;;;;;;;;;;;;;8.40;85.78;99790.66;5280329;27;19991;-91
2024/04/17 12:08:35;;;;;;;;;;;;;;;8.31;85.96;99787.59;5280319;27;19959;-85
2024/04/17 12:11:00;;;;;;;;;;;;;;;8.28;86.52;99784.38;5279146;27;19934;-84
2024/04/17 12:13:26;;;;;;;;;;;;;;;8.28;89.24;99780.03;5309336;27;20486;-90
2024/04/17 12:15:51;;;;;;;;;;;;;;;8.31;87.33;99779.03;5281119;27;19938;-86
2024/04/17 12:18:16;;;;;;;;;;;;;;;8.34;88.00;99776.28;5308912;27;20493;-86
2024/04/17 12:20:42;;;;;;;;;;;;;;;8.26;88.52;99776.72;5279755;27;20353;-89
2024/04/17 12:23:07;;;;;;;;;;;;;;;8.29;89.83;99778.31;5280546;27;19950;-87
2024/04/17 12:28:16;;;;;;;;;;;;;;;8.34;88.06;99790.03;5285484;27;20399;-91
2024/04/17 12:30:42;;;;;;;;;;;;;;;8.29;87.66;99792.00;5282182;27;19927;-86
2024/04/17 12:33:07;;;;;;;;;;;;;;;8.37;88.50;99791.66;5280720;27;19927;-85
2024/04/17 12:35:32;;;;;;;;;;;;;;;8.31;87.83;99790.19;5309457;27;20348;-87
2024/04/17 12:37:58;;;;;;;;;;;;;;;8.32;87.07;99786.69;5278478;27;19927;-83
2024/04/17 12:40:23;;;;;;;;;;;;;;;8.36;86.54;99776.25;5279284;27;21584;-87
2024/04/17 12:42:48;;;;;;;;;;;;;;;8.40;86.35;99765.69;5310104;27;19926;-85